sensor_id;sensor_type;location;lat;lon;timestamp;P1;durP1;ratioP1;P2;durP2;ratioP2
11685;SDS011;5899;51.282;6.094;2023-01-13T00:00:27;1.92;;;1.30;;
11685;SDS011;5899;51.282;6.094;2023-01-13T00:02:56;2.63;;;1.30;;
11685;SDS011;5899;51.282;6.094;2023-01-13T00:05:30;2.67;;;1.38;;
11685;SDS011;5899;51.282;6.094;2023-01-13T00:07:57;2.17;;;1.27;;
11685;SDS011;5899;51.282;6.094;2023-01-13T00:10:29;2.97;;;1.40;;
11685;SDS011;5899;51.282;6.094;2023-01-13T00:13:00;2.65;;;1.58;;
11685;SDS011;5899;51.282;6.094;2023-01-13T00:15:32;3.63;;;1.70;;
11685;SDS011;5899;51.282;6.094;2023-01-13T00:18:04;2.70;;;1.58;;
11685;SDS011;5899;51.282;6.094;2023-01-13T00:20:38;4.38;;;1.77;;
11685;SDS011;5899;51.282;6.094;2023-01-13T00:23:11;3.42;;;1.63;;
11685;SDS011;5899;51.282;6.094;2023-01-13T00:25:38;3.28;;;1.67;;
11685;SDS011;5899;51.282;6.094;2023-01-13T00:28:07;6.10;;;2.20;;
11685;SDS011;5899;51.282;6.094;2023-01-13T00:30:50;5.07;;;1.80;;
11685;SDS011;5899;51.282;6.094;2023-01-13T00:33:16;4.50;;;2.00;;
11685;SDS011;5899;51.282;6.094;2023-01-13T00:35:46;5.67;;;2.17;;
11685;SDS011;5899;51.282;6.094;2023-01-13T00:38:23;4.78;;;1.83;;
11685;SDS011;5899;51.282;6.094;2023-01-13T00:40:56;5.00;;;1.90;;
11685;SDS011;5899;51.282;6.094;2023-01-13T00:43:25;7.00;;;2.22;;
11685;SDS011;5899;51.282;6.094;2023-01-13T00:45:52;4.53;;;1.90;;
11685;SDS011;5899;51.282;6.094;2023-01-13T00:48:21;6.15;;;2.28;;
11685;SDS011;5899;51.282;6.094;2023-01-13T00:50:54;6.90;;;2.40;;
11685;SDS011;5899;51.282;6.094;2023-01-13T00:53:23;5.63;;;2.30;;
11685;SDS011;5899;51.282;6.094;2023-01-13T00:55:57;5.45;;;2.30;;
11685;SDS011;5899;51.282;6.094;2023-01-13T00:58:38;6.82;;;2.53;;
11685;SDS011;5899;51.282;6.094;2023-01-13T01:01:09;6.17;;;2.40;;
11685;SDS011;5899;51.282;6.094;2023-01-13T01:03:40;6.32;;;2.40;;
11685;SDS011;5899;51.282;6.094;2023-01-13T01:06:12;5.50;;;2.10;;
11685;SDS011;5899;51.282;6.094;2023-01-13T01:08:41;8.10;;;2.60;;
11685;SDS011;5899;51.282;6.094;2023-01-13T01:11:11;6.20;;;2.38;;
11685;SDS011;5899;51.282;6.094;2023-01-13T01:13:50;8.63;;;2.50;;
11685;SDS011;5899;51.282;6.094;2023-01-13T01:16:27;8.00;;;2.22;;
11685;SDS011;5899;51.282;6.094;2023-01-13T01:18:55;7.20;;;2.50;;
11685;SDS011;5899;51.282;6.094;2023-01-13T01:21:23;7.72;;;2.80;;
11685;SDS011;5899;51.282;6.094;2023-01-13T01:23:53;9.52;;;2.70;;
11685;SDS011;5899;51.282;6.094;2023-01-13T01:26:21;9.30;;;3.13;;
11685;SDS011;5899;51.282;6.094;2023-01-13T01:28:51;9.57;;;2.67;;
11685;SDS011;5899;51.282;6.094;2023-01-13T01:31:21;6.45;;;2.90;;
11685;SDS011;5899;51.282;6.094;2023-01-13T01:33:49;7.57;;;2.40;;
11685;SDS011;5899;51.282;6.094;2023-01-13T01:36:16;8.32;;;2.83;;
11685;SDS011;5899;51.282;6.094;2023-01-13T01:38:51;9.88;;;3.00;;
11685;SDS011;5899;51.282;6.094;2023-01-13T01:41:19;8.50;;;2.93;;
11685;SDS011;5899;51.282;6.094;2023-01-13T01:44:00;8.45;;;2.83;;
11685;SDS011;5899;51.282;6.094;2023-01-13T01:46:32;11.07;;;3.53;;
11685;SDS011;5899;51.282;6.094;2023-01-13T01:49:07;8.40;;;2.65;;
11685;SDS011;5899;51.282;6.094;2023-01-13T01:51:35;8.60;;;2.38;;
11685;SDS011;5899;51.282;6.094;2023-01-13T01:54:14;9.20;;;3.13;;
11685;SDS011;5899;51.282;6.094;2023-01-13T01:56:44;9.90;;;2.72;;
11685;SDS011;5899;51.282;6.094;2023-01-13T01:59:19;11.05;;;3.30;;
11685;SDS011;5899;51.282;6.094;2023-01-13T02:01:50;8.70;;;2.78;;
11685;SDS011;5899;51.282;6.094;2023-01-13T02:04:18;9.23;;;2.85;;
11685;SDS011;5899;51.282;6.094;2023-01-13T02:06:49;9.17;;;2.67;;
11685;SDS011;5899;51.282;6.094;2023-01-13T02:12:12;10.77;;;3.00;;
11685;SDS011;5899;51.282;6.094;2023-01-13T02:14:59;9.90;;;3.20;;
11685;SDS011;5899;51.282;6.094;2023-01-13T02:17:41;8.57;;;3.30;;
11685;SDS011;5899;51.282;6.094;2023-01-13T02:26:03;13.90;;;3.70;;
11685;SDS011;5899;51.282;6.094;2023-01-13T02:28:47;9.48;;;3.05;;
11685;SDS011;5899;51.282;6.094;2023-01-13T02:31:34;10.85;;;3.13;;
11685;SDS011;5899;51.282;6.094;2023-01-13T02:34:10;13.18;;;3.70;;
11685;SDS011;5899;51.282;6.094;2023-01-13T02:36:40;13.77;;;3.42;;
11685;SDS011;5899;51.282;6.094;2023-01-13T02:39:13;14.57;;;3.63;;
11685;SDS011;5899;51.282;6.094;2023-01-13T02:41:45;11.85;;;3.67;;
11685;SDS011;5899;51.282;6.094;2023-01-13T02:44:32;12.63;;;3.55;;
11685;SDS011;5899;51.282;6.094;2023-01-13T02:47:02;10.80;;;3.42;;
11685;SDS011;5899;51.282;6.094;2023-01-13T02:49:33;10.52;;;3.15;;
11685;SDS011;5899;51.282;6.094;2023-01-13T02:52:07;13.80;;;4.13;;
11685;SDS011;5899;51.282;6.094;2023-01-13T02:54:45;11.75;;;3.90;;
11685;SDS011;5899;51.282;6.094;2023-01-13T02:57:15;11.35;;;3.53;;
11685;SDS011;5899;51.282;6.094;2023-01-13T02:59:56;13.48;;;3.80;;
11685;SDS011;5899;51.282;6.094;2023-01-13T03:02:25;11.85;;;3.67;;
11685;SDS011;5899;51.282;6.094;2023-01-13T03:05:23;10.70;;;3.45;;
11685;SDS011;5899;51.282;6.094;2023-01-13T03:08:03;10.32;;;3.42;;
11685;SDS011;5899;51.282;6.094;2023-01-13T03:10:35;8.48;;;2.40;;
11685;SDS011;5899;51.282;6.094;2023-01-13T03:13:07;9.13;;;2.70;;
11685;SDS011;5899;51.282;6.094;2023-01-13T03:15:41;7.97;;;2.27;;
11685;SDS011;5899;51.282;6.094;2023-01-13T03:18:15;8.32;;;2.40;;
11685;SDS011;5899;51.282;6.094;2023-01-13T03:20:46;7.40;;;2.47;;
11685;SDS011;5899;51.282;6.094;2023-01-13T03:23:29;7.25;;;2.60;;
11685;SDS011;5899;51.282;6.094;2023-01-13T03:26:06;7.15;;;2.13;;
11685;SDS011;5899;51.282;6.094;2023-01-13T03:28:41;5.40;;;2.10;;
11685;SDS011;5899;51.282;6.094;2023-01-13T03:31:38;5.15;;;2.28;;
11685;SDS011;5899;51.282;6.094;2023-01-13T03:34:11;6.72;;;2.47;;
11685;SDS011;5899;51.282;6.094;2023-01-13T03:36:45;7.22;;;2.30;;
11685;SDS011;5899;51.282;6.094;2023-01-13T03:39:18;5.28;;;2.53;;
11685;SDS011;5899;51.282;6.094;2023-01-13T03:41:46;7.97;;;2.40;;
11685;SDS011;5899;51.282;6.094;2023-01-13T03:44:28;6.88;;;2.20;;
11685;SDS011;5899;51.282;6.094;2023-01-13T03:47:05;7.57;;;2.40;;
11685;SDS011;5899;51.282;6.094;2023-01-13T03:49:38;6.03;;;2.47;;
11685;SDS011;5899;51.282;6.094;2023-01-13T03:52:16;8.77;;;2.70;;
11685;SDS011;5899;51.282;6.094;2023-01-13T03:54:47;7.82;;;2.38;;
11685;SDS011;5899;51.282;6.094;2023-01-13T03:57:22;6.97;;;2.47;;
11685;SDS011;5899;51.282;6.094;2023-01-13T03:59:54;6.72;;;2.55;;
11685;SDS011;5899;51.282;6.094;2023-01-13T04:02:28;7.50;;;2.67;;
11685;SDS011;5899;51.282;6.094;2023-01-13T04:04:59;8.50;;;2.63;;
11685;SDS011;5899;51.282;6.094;2023-01-13T04:07:30;9.32;;;2.63;;
11685;SDS011;5899;51.282;6.094;2023-01-13T04:10:02;7.57;;;2.75;;
11685;SDS011;5899;51.282;6.094;2023-01-13T04:12:30;7.65;;;2.80;;
11685;SDS011;5899;51.282;6.094;2023-01-13T04:15:13;10.50;;;2.90;;
11685;SDS011;5899;51.282;6.094;2023-01-13T04:17:40;7.03;;;2.67;;
11685;SDS011;5899;51.282;6.094;2023-01-13T04:20:11;9.95;;;2.92;;
11685;SDS011;5899;51.282;6.094;2023-01-13T04:22:39;11.10;;;3.13;;
11685;SDS011;5899;51.282;6.094;2023-01-13T04:25:19;11.30;;;2.90;;
11685;SDS011;5899;51.282;6.094;2023-01-13T04:27:50;9.02;;;2.88;;
11685;SDS011;5899;51.282;6.094;2023-01-13T04:30:17;11.70;;;3.28;;
11685;SDS011;5899;51.282;6.094;2023-01-13T04:32:58;9.00;;;2.88;;
11685;SDS011;5899;51.282;6.094;2023-01-13T04:35:30;9.00;;;2.90;;
11685;SDS011;5899;51.282;6.094;2023-01-13T04:37:59;8.38;;;3.10;;
11685;SDS011;5899;51.282;6.094;2023-01-13T04:40:26;10.38;;;3.22;;
11685;SDS011;5899;51.282;6.094;2023-01-13T04:42:55;9.07;;;2.87;;
11685;SDS011;5899;51.282;6.094;2023-01-13T04:45:24;8.17;;;2.67;;
11685;SDS011;5899;51.282;6.094;2023-01-13T04:47:52;7.93;;;2.50;;
11685;SDS011;5899;51.282;6.094;2023-01-13T04:50:34;7.60;;;2.55;;
11685;SDS011;5899;51.282;6.094;2023-01-13T04:53:02;9.07;;;2.50;;
11685;SDS011;5899;51.282;6.094;2023-01-13T04:55:30;9.90;;;2.75;;
11685;SDS011;5899;51.282;6.094;2023-01-13T04:58:00;9.13;;;3.08;;
11685;SDS011;5899;51.282;6.094;2023-01-13T05:00:27;11.07;;;2.90;;
11685;SDS011;5899;51.282;6.094;2023-01-13T05:02:56;8.52;;;2.47;;
11685;SDS011;5899;51.282;6.094;2023-01-13T05:05:27;11.77;;;3.10;;
11685;SDS011;5899;51.282;6.094;2023-01-13T05:08:29;13.20;;;3.00;;
11685;SDS011;5899;51.282;6.094;2023-01-13T05:11:04;9.10;;;3.22;;
11685;SDS011;5899;51.282;6.094;2023-01-13T05:13:59;11.38;;;3.42;;
11685;SDS011;5899;51.282;6.094;2023-01-13T05:16:43;9.40;;;3.00;;
11685;SDS011;5899;51.282;6.094;2023-01-13T05:19:30;10.00;;;3.10;;
11685;SDS011;5899;51.282;6.094;2023-01-13T05:22:00;7.78;;;2.70;;
11685;SDS011;5899;51.282;6.094;2023-01-13T05:24:46;9.68;;;2.85;;
11685;SDS011;5899;51.282;6.094;2023-01-13T05:27:32;9.48;;;2.80;;
11685;SDS011;5899;51.282;6.094;2023-01-13T05:30:01;10.52;;;3.15;;
11685;SDS011;5899;51.282;6.094;2023-01-13T05:32:32;10.57;;;2.92;;
11685;SDS011;5899;51.282;6.094;2023-01-13T05:34:59;8.97;;;2.83;;
11685;SDS011;5899;51.282;6.094;2023-01-13T05:37:28;9.93;;;2.80;;
11685;SDS011;5899;51.282;6.094;2023-01-13T05:39:58;10.63;;;2.67;;
11685;SDS011;5899;51.282;6.094;2023-01-13T05:42:42;9.73;;;2.97;;
11685;SDS011;5899;51.282;6.094;2023-01-13T05:45:27;7.45;;;2.60;;
11685;SDS011;5899;51.282;6.094;2023-01-13T05:47:57;7.77;;;2.70;;
11685;SDS011;5899;51.282;6.094;2023-01-13T05:50:27;9.20;;;2.70;;
11685;SDS011;5899;51.282;6.094;2023-01-13T05:52:54;9.38;;;2.83;;
11685;SDS011;5899;51.282;6.094;2023-01-13T05:55:24;7.47;;;2.17;;
11685;SDS011;5899;51.282;6.094;2023-01-13T05:58:09;13.27;;;3.10;;
11685;SDS011;5899;51.282;6.094;2023-01-13T06:00:40;9.25;;;2.90;;
11685;SDS011;5899;51.282;6.094;2023-01-13T06:03:28;8.35;;;2.17;;
11685;SDS011;5899;51.282;6.094;2023-01-13T06:05:56;9.05;;;2.72;;
11685;SDS011;5899;51.282;6.094;2023-01-13T06:08:28;6.63;;;2.40;;
11685;SDS011;5899;51.282;6.094;2023-01-13T06:10:56;8.82;;;2.58;;
11685;SDS011;5899;51.282;6.094;2023-01-13T06:13:23;7.93;;;2.43;;
11685;SDS011;5899;51.282;6.094;2023-01-13T06:15:56;7.68;;;2.55;;
11685;SDS011;5899;51.282;6.094;2023-01-13T06:18:28;11.38;;;3.20;;
11685;SDS011;5899;51.282;6.094;2023-01-13T06:20:58;8.07;;;2.60;;
11685;SDS011;5899;51.282;6.094;2023-01-13T06:23:49;7.25;;;2.30;;
11685;SDS011;5899;51.282;6.094;2023-01-13T06:26:18;8.23;;;2.85;;
11685;SDS011;5899;51.282;6.094;2023-01-13T06:29:04;10.38;;;2.63;;
11685;SDS011;5899;51.282;6.094;2023-01-13T06:32:19;10.37;;;2.80;;
11685;SDS011;5899;51.282;6.094;2023-01-13T06:37:22;11.60;;;2.90;;
11685;SDS011;5899;51.282;6.094;2023-01-13T06:39:53;11.45;;;3.40;;
11685;SDS011;5899;51.282;6.094;2023-01-13T06:42:31;7.70;;;2.97;;
11685;SDS011;5899;51.282;6.094;2023-01-13T06:45:17;7.43;;;2.67;;
11685;SDS011;5899;51.282;6.094;2023-01-13T06:47:43;12.18;;;2.97;;
11685;SDS011;5899;51.282;6.094;2023-01-13T06:50:13;11.43;;;2.60;;
11685;SDS011;5899;51.282;6.094;2023-01-13T06:52:39;9.23;;;2.50;;
11685;SDS011;5899;51.282;6.094;2023-01-13T06:55:08;11.43;;;3.17;;
11685;SDS011;5899;51.282;6.094;2023-01-13T06:57:49;13.23;;;3.35;;
11685;SDS011;5899;51.282;6.094;2023-01-13T07:00:16;9.40;;;2.90;;
11685;SDS011;5899;51.282;6.094;2023-01-13T07:02:43;9.43;;;2.92;;
11685;SDS011;5899;51.282;6.094;2023-01-13T07:05:09;9.60;;;3.13;;
11685;SDS011;5899;51.282;6.094;2023-01-13T07:07:37;7.57;;;3.10;;
11685;SDS011;5899;51.282;6.094;2023-01-13T07:10:04;10.80;;;2.97;;
11685;SDS011;5899;51.282;6.094;2023-01-13T07:12:33;8.73;;;3.10;;
11685;SDS011;5899;51.282;6.094;2023-01-13T07:15:22;10.55;;;3.38;;
11685;SDS011;5899;51.282;6.094;2023-01-13T07:17:47;8.68;;;2.65;;
11685;SDS011;5899;51.282;6.094;2023-01-13T07:20:22;9.00;;;2.60;;
11685;SDS011;5899;51.282;6.094;2023-01-13T07:22:53;11.50;;;3.00;;
11685;SDS011;5899;51.282;6.094;2023-01-13T07:25:21;8.40;;;2.85;;
11685;SDS011;5899;51.282;6.094;2023-01-13T07:27:52;11.13;;;3.00;;
11685;SDS011;5899;51.282;6.094;2023-01-13T07:30:18;10.07;;;2.83;;
11685;SDS011;5899;51.282;6.094;2023-01-13T07:32:47;11.63;;;2.83;;
11685;SDS011;5899;51.282;6.094;2023-01-13T07:35:17;9.10;;;2.97;;
11685;SDS011;5899;51.282;6.094;2023-01-13T07:37:47;8.07;;;3.03;;
11685;SDS011;5899;51.282;6.094;2023-01-13T07:40:14;10.57;;;3.10;;
11685;SDS011;5899;51.282;6.094;2023-01-13T07:42:40;11.43;;;3.33;;
11685;SDS011;5899;51.282;6.094;2023-01-13T07:45:25;11.07;;;3.00;;
11685;SDS011;5899;51.282;6.094;2023-01-13T07:47:55;10.10;;;2.67;;
11685;SDS011;5899;51.282;6.094;2023-01-13T07:50:22;11.10;;;3.65;;
11685;SDS011;5899;51.282;6.094;2023-01-13T07:52:48;11.68;;;3.15;;
11685;SDS011;5899;51.282;6.094;2023-01-13T07:55:15;13.60;;;3.83;;
11685;SDS011;5899;51.282;6.094;2023-01-13T07:57:46;14.02;;;3.40;;
11685;SDS011;5899;51.282;6.094;2023-01-13T08:00:13;7.63;;;2.90;;
11685;SDS011;5899;51.282;6.094;2023-01-13T08:02:43;10.20;;;3.28;;
11685;SDS011;5899;51.282;6.094;2023-01-13T08:05:12;15.95;;;3.70;;
11685;SDS011;5899;51.282;6.094;2023-01-13T08:07:39;10.32;;;3.00;;
11685;SDS011;5899;51.282;6.094;2023-01-13T08:10:06;10.07;;;3.55;;
11685;SDS011;5899;51.282;6.094;2023-01-13T08:12:32;10.15;;;3.00;;
11685;SDS011;5899;51.282;6.094;2023-01-13T08:15:16;12.00;;;3.30;;
11685;SDS011;5899;51.282;6.094;2023-01-13T08:17:43;11.88;;;3.40;;
11685;SDS011;5899;51.282;6.094;2023-01-13T08:20:13;11.65;;;3.10;;
11685;SDS011;5899;51.282;6.094;2023-01-13T08:22:39;11.98;;;3.38;;
11685;SDS011;5899;51.282;6.094;2023-01-13T08:25:09;11.70;;;3.57;;
11685;SDS011;5899;51.282;6.094;2023-01-13T08:27:35;9.00;;;3.45;;
11685;SDS011;5899;51.282;6.094;2023-01-13T08:30:02;11.55;;;3.25;;
11685;SDS011;5899;51.282;6.094;2023-01-13T08:32:29;11.57;;;3.30;;
11685;SDS011;5899;51.282;6.094;2023-01-13T08:34:56;12.90;;;3.28;;
11685;SDS011;5899;51.282;6.094;2023-01-13T08:37:28;9.68;;;3.22;;
11685;SDS011;5899;51.282;6.094;2023-01-13T08:39:55;9.52;;;3.30;;
11685;SDS011;5899;51.282;6.094;2023-01-13T08:42:21;9.77;;;3.17;;
11685;SDS011;5899;51.282;6.094;2023-01-13T08:44:48;10.55;;;3.40;;
11685;SDS011;5899;51.282;6.094;2023-01-13T08:47:15;11.00;;;3.20;;
11685;SDS011;5899;51.282;6.094;2023-01-13T08:49:44;10.43;;;3.30;;
11685;SDS011;5899;51.282;6.094;2023-01-13T08:52:10;11.20;;;3.67;;
11685;SDS011;5899;51.282;6.094;2023-01-13T08:54:38;12.20;;;3.83;;
11685;SDS011;5899;51.282;6.094;2023-01-13T08:57:05;10.57;;;3.45;;
11685;SDS011;5899;51.282;6.094;2023-01-13T08:59:32;14.18;;;3.65;;
11685;SDS011;5899;51.282;6.094;2023-01-13T09:02:00;11.77;;;3.35;;
11685;SDS011;5899;51.282;6.094;2023-01-13T09:04:35;13.70;;;3.83;;
11685;SDS011;5899;51.282;6.094;2023-01-13T09:07:02;13.57;;;3.88;;
11685;SDS011;5899;51.282;6.094;2023-01-13T09:09:28;13.57;;;3.95;;
11685;SDS011;5899;51.282;6.094;2023-01-13T09:11:56;17.35;;;4.93;;
11685;SDS011;5899;51.282;6.094;2023-01-13T09:14:40;15.43;;;4.40;;
11685;SDS011;5899;51.282;6.094;2023-01-13T09:17:06;16.20;;;4.88;;
11685;SDS011;5899;51.282;6.094;2023-01-13T09:19:33;16.35;;;4.80;;
11685;SDS011;5899;51.282;6.094;2023-01-13T09:21:59;17.02;;;4.63;;
11685;SDS011;5899;51.282;6.094;2023-01-13T09:24:26;15.07;;;4.43;;
11685;SDS011;5899;51.282;6.094;2023-01-13T09:26:57;17.73;;;4.80;;
11685;SDS011;5899;51.282;6.094;2023-01-13T09:29:23;12.55;;;4.15;;
11685;SDS011;5899;51.282;6.094;2023-01-13T09:31:50;14.50;;;4.03;;
11685;SDS011;5899;51.282;6.094;2023-01-13T09:34:17;16.50;;;4.35;;
11685;SDS011;5899;51.282;6.094;2023-01-13T09:37:02;14.70;;;4.15;;
11685;SDS011;5899;51.282;6.094;2023-01-13T09:39:28;15.98;;;4.43;;
11685;SDS011;5899;51.282;6.094;2023-01-13T09:41:55;17.63;;;4.30;;
11685;SDS011;5899;51.282;6.094;2023-01-13T09:44:43;15.95;;;4.13;;
11685;SDS011;5899;51.282;6.094;2023-01-13T09:47:11;18.85;;;4.13;;
11685;SDS011;5899;51.282;6.094;2023-01-13T09:49:42;13.40;;;4.05;;
11685;SDS011;5899;51.282;6.094;2023-01-13T09:52:12;15.95;;;4.40;;
11685;SDS011;5899;51.282;6.094;2023-01-13T09:54:40;12.23;;;3.90;;
11685;SDS011;5899;51.282;6.094;2023-01-13T09:57:09;11.88;;;3.67;;
11685;SDS011;5899;51.282;6.094;2023-01-13T09:59:36;13.35;;;3.85;;
11685;SDS011;5899;51.282;6.094;2023-01-13T10:02:09;13.35;;;4.05;;
11685;SDS011;5899;51.282;6.094;2023-01-13T10:04:39;14.30;;;3.88;;
11685;SDS011;5899;51.282;6.094;2023-01-13T10:07:07;18.88;;;3.92;;
11685;SDS011;5899;51.282;6.094;2023-01-13T10:09:39;13.40;;;4.27;;
11685;SDS011;5899;51.282;6.094;2023-01-13T10:12:12;12.35;;;3.75;;
11685;SDS011;5899;51.282;6.094;2023-01-13T10:14:57;13.88;;;4.22;;
11685;SDS011;5899;51.282;6.094;2023-01-13T10:17:27;17.10;;;4.43;;
11685;SDS011;5899;51.282;6.094;2023-01-13T10:19:56;13.52;;;4.03;;
11685;SDS011;5899;51.282;6.094;2023-01-13T10:22:33;14.10;;;3.90;;
11685;SDS011;5899;51.282;6.094;2023-01-13T10:27:45;17.45;;;4.22;;
11685;SDS011;5899;51.282;6.094;2023-01-13T10:30:17;12.37;;;3.70;;
11685;SDS011;5899;51.282;6.094;2023-01-13T10:32:46;14.20;;;4.10;;
11685;SDS011;5899;51.282;6.094;2023-01-13T10:35:15;13.57;;;3.73;;
11685;SDS011;5899;51.282;6.094;2023-01-13T10:37:42;13.00;;;3.53;;
11685;SDS011;5899;51.282;6.094;2023-01-13T10:40:20;15.27;;;4.32;;
11685;SDS011;5899;51.282;6.094;2023-01-13T10:42:47;15.75;;;4.38;;
11685;SDS011;5899;51.282;6.094;2023-01-13T10:45:16;15.07;;;4.10;;
11685;SDS011;5899;51.282;6.094;2023-01-13T10:47:50;15.55;;;4.43;;
11685;SDS011;5899;51.282;6.094;2023-01-13T10:50:28;15.70;;;4.57;;
11685;SDS011;5899;51.282;6.094;2023-01-13T10:52:57;14.40;;;3.97;;
11685;SDS011;5899;51.282;6.094;2023-01-13T10:55:24;14.38;;;4.30;;
11685;SDS011;5899;51.282;6.094;2023-01-13T10:57:52;14.40;;;4.25;;
11685;SDS011;5899;51.282;6.094;2023-01-13T11:00:24;16.00;;;4.82;;
11685;SDS011;5899;51.282;6.094;2023-01-13T11:05:34;14.88;;;4.05;;
11685;SDS011;5899;51.282;6.094;2023-01-13T11:08:12;16.83;;;3.90;;
11685;SDS011;5899;51.282;6.094;2023-01-13T11:10:43;13.50;;;4.05;;
11685;SDS011;5899;51.282;6.094;2023-01-13T11:13:11;15.83;;;4.23;;
11685;SDS011;5899;51.282;6.094;2023-01-13T11:15:40;14.60;;;3.80;;
11685;SDS011;5899;51.282;6.094;2023-01-13T11:18:12;14.25;;;4.07;;
11685;SDS011;5899;51.282;6.094;2023-01-13T11:20:41;14.77;;;4.07;;
11685;SDS011;5899;51.282;6.094;2023-01-13T11:23:10;19.48;;;4.25;;
11685;SDS011;5899;51.282;6.094;2023-01-13T11:25:39;15.97;;;4.80;;
11685;SDS011;5899;51.282;6.094;2023-01-13T11:28:14;15.55;;;4.07;;
11685;SDS011;5899;51.282;6.094;2023-01-13T11:30:42;15.95;;;4.63;;
11685;SDS011;5899;51.282;6.094;2023-01-13T11:33:29;13.63;;;4.05;;
11685;SDS011;5899;51.282;6.094;2023-01-13T11:36:02;14.73;;;4.85;;
11685;SDS011;5899;51.282;6.094;2023-01-13T11:38:30;13.27;;;4.13;;
11685;SDS011;5899;51.282;6.094;2023-01-13T11:40:59;17.02;;;5.13;;
11685;SDS011;5899;51.282;6.094;2023-01-13T11:43:28;17.92;;;4.43;;
11685;SDS011;5899;51.282;6.094;2023-01-13T11:45:57;13.95;;;4.78;;
11685;SDS011;5899;51.282;6.094;2023-01-13T11:48:25;15.70;;;4.30;;
11685;SDS011;5899;51.282;6.094;2023-01-13T11:50:54;13.43;;;3.85;;
11685;SDS011;5899;51.282;6.094;2023-01-13T11:53:26;13.82;;;4.40;;
11685;SDS011;5899;51.282;6.094;2023-01-13T11:55:57;13.30;;;3.85;;
11685;SDS011;5899;51.282;6.094;2023-01-13T11:58:33;15.65;;;4.68;;
11685;SDS011;5899;51.282;6.094;2023-01-13T12:01:13;13.88;;;4.47;;
11685;SDS011;5899;51.282;6.094;2023-01-13T12:03:45;13.38;;;4.20;;
11685;SDS011;5899;51.282;6.094;2023-01-13T12:06:18;14.45;;;4.28;;
11685;SDS011;5899;51.282;6.094;2023-01-13T12:11:32;12.33;;;3.90;;
11685;SDS011;5899;51.282;6.094;2023-01-13T12:14:21;14.05;;;4.13;;
11685;SDS011;5899;51.282;6.094;2023-01-13T12:16:49;13.40;;;4.10;;
11685;SDS011;5899;51.282;6.094;2023-01-13T12:19:20;14.32;;;4.30;;
11685;SDS011;5899;51.282;6.094;2023-01-13T12:21:56;14.45;;;3.75;;
11685;SDS011;5899;51.282;6.094;2023-01-13T12:24:24;10.45;;;3.60;;
11685;SDS011;5899;51.282;6.094;2023-01-13T12:26:55;16.70;;;4.17;;
11685;SDS011;5899;51.282;6.094;2023-01-13T12:29:24;14.48;;;4.47;;
11685;SDS011;5899;51.282;6.094;2023-01-13T12:31:53;16.90;;;4.00;;
11685;SDS011;5899;51.282;6.094;2023-01-13T12:34:23;13.70;;;3.70;;
11685;SDS011;5899;51.282;6.094;2023-01-13T12:36:55;12.93;;;3.80;;
11685;SDS011;5899;51.282;6.094;2023-01-13T12:39:25;12.20;;;3.90;;
11685;SDS011;5899;51.282;6.094;2023-01-13T12:41:57;11.13;;;3.70;;
11685;SDS011;5899;51.282;6.094;2023-01-13T12:47:33;12.27;;;3.80;;
11685;SDS011;5899;51.282;6.094;2023-01-13T12:52:42;12.55;;;3.83;;
11685;SDS011;5899;51.282;6.094;2023-01-13T12:55:12;12.55;;;4.18;;
11685;SDS011;5899;51.282;6.094;2023-01-13T12:57:41;13.15;;;3.88;;
11685;SDS011;5899;51.282;6.094;2023-01-13T13:00:20;12.90;;;4.35;;
11685;SDS011;5899;51.282;6.094;2023-01-13T13:05:30;17.40;;;4.50;;
11685;SDS011;5899;51.282;6.094;2023-01-13T13:08:03;14.48;;;4.30;;
11685;SDS011;5899;51.282;6.094;2023-01-13T13:10:31;13.57;;;4.07;;
11685;SDS011;5899;51.282;6.094;2023-01-13T13:13:00;10.20;;;3.42;;
11685;SDS011;5899;51.282;6.094;2023-01-13T13:15:42;14.30;;;4.35;;
11685;SDS011;5899;51.282;6.094;2023-01-13T13:18:19;14.57;;;3.92;;
11685;SDS011;5899;51.282;6.094;2023-01-13T13:20:51;14.37;;;4.10;;
11685;SDS011;5899;51.282;6.094;2023-01-13T13:23:26;15.83;;;4.03;;
11685;SDS011;5899;51.282;6.094;2023-01-13T13:26:00;12.52;;;3.75;;
11685;SDS011;5899;51.282;6.094;2023-01-13T13:28:30;13.97;;;4.20;;
11685;SDS011;5899;51.282;6.094;2023-01-13T13:31:13;13.50;;;4.07;;
11685;SDS011;5899;51.282;6.094;2023-01-13T13:33:46;14.00;;;4.60;;
11685;SDS011;5899;51.282;6.094;2023-01-13T13:36:21;13.13;;;3.85;;
11685;SDS011;5899;51.282;6.094;2023-01-13T13:38:57;13.30;;;4.57;;
11685;SDS011;5899;51.282;6.094;2023-01-13T13:41:46;14.40;;;4.47;;
11685;SDS011;5899;51.282;6.094;2023-01-13T13:44:46;11.98;;;3.67;;
11685;SDS011;5899;51.282;6.094;2023-01-13T13:47:36;15.52;;;4.40;;
11685;SDS011;5899;51.282;6.094;2023-01-13T13:50:06;11.90;;;3.85;;
11685;SDS011;5899;51.282;6.094;2023-01-13T13:52:34;12.47;;;4.00;;
11685;SDS011;5899;51.282;6.094;2023-01-13T13:55:03;13.07;;;4.70;;
11685;SDS011;5899;51.282;6.094;2023-01-13T13:57:37;15.10;;;3.97;;
11685;SDS011;5899;51.282;6.094;2023-01-13T14:00:17;16.23;;;4.55;;
11685;SDS011;5899;51.282;6.094;2023-01-13T14:02:46;10.85;;;3.88;;
11685;SDS011;5899;51.282;6.094;2023-01-13T14:05:17;11.15;;;3.85;;
11685;SDS011;5899;51.282;6.094;2023-01-13T14:07:44;14.68;;;3.90;;
11685;SDS011;5899;51.282;6.094;2023-01-13T14:10:13;12.88;;;3.75;;
11685;SDS011;5899;51.282;6.094;2023-01-13T14:12:41;12.48;;;4.10;;
11685;SDS011;5899;51.282;6.094;2023-01-13T14:15:22;10.35;;;3.95;;
11685;SDS011;5899;51.282;6.094;2023-01-13T14:17:58;11.73;;;3.70;;
11685;SDS011;5899;51.282;6.094;2023-01-13T14:20:25;12.48;;;3.97;;
11685;SDS011;5899;51.282;6.094;2023-01-13T14:22:53;11.73;;;3.92;;
11685;SDS011;5899;51.282;6.094;2023-01-13T14:25:28;11.40;;;3.65;;
11685;SDS011;5899;51.282;6.094;2023-01-13T14:27:57;10.60;;;3.90;;
11685;SDS011;5899;51.282;6.094;2023-01-13T14:30:26;12.63;;;3.83;;
11685;SDS011;5899;51.282;6.094;2023-01-13T14:32:53;8.95;;;3.67;;
11685;SDS011;5899;51.282;6.094;2023-01-13T14:35:20;10.82;;;3.63;;
11685;SDS011;5899;51.282;6.094;2023-01-13T14:37:48;10.98;;;3.55;;
11685;SDS011;5899;51.282;6.094;2023-01-13T14:43:13;8.63;;;3.58;;
11685;SDS011;5899;51.282;6.094;2023-01-13T14:45:41;11.18;;;3.70;;
11685;SDS011;5899;51.282;6.094;2023-01-13T14:48:11;11.18;;;3.38;;
11685;SDS011;5899;51.282;6.094;2023-01-13T14:50:39;12.23;;;3.63;;
11685;SDS011;5899;51.282;6.094;2023-01-13T14:55:51;10.30;;;3.72;;
11685;SDS011;5899;51.282;6.094;2023-01-13T14:58:24;12.57;;;3.97;;
11685;SDS011;5899;51.282;6.094;2023-01-13T15:01:23;10.05;;;3.78;;
11685;SDS011;5899;51.282;6.094;2023-01-13T15:03:40;12.43;;;4.03;;
11685;SDS011;5899;51.282;6.094;2023-01-13T15:06:18;10.48;;;3.67;;
11685;SDS011;5899;51.282;6.094;2023-01-13T15:08:45;10.82;;;3.38;;
11685;SDS011;5899;51.282;6.094;2023-01-13T15:11:17;11.75;;;4.40;;
11685;SDS011;5899;51.282;6.094;2023-01-13T15:13:45;11.93;;;4.30;;
11685;SDS011;5899;51.282;6.094;2023-01-13T15:16:15;12.35;;;3.83;;
11685;SDS011;5899;51.282;6.094;2023-01-13T15:18:42;11.30;;;3.78;;
11685;SDS011;5899;51.282;6.094;2023-01-13T15:21:08;11.80;;;4.13;;
11685;SDS011;5899;51.282;6.094;2023-01-13T15:23:35;14.20;;;3.90;;
11685;SDS011;5899;51.282;6.094;2023-01-13T15:26:05;11.45;;;3.40;;
11685;SDS011;5899;51.282;6.094;2023-01-13T15:28:38;13.07;;;3.53;;
11685;SDS011;5899;51.282;6.094;2023-01-13T15:31:05;13.32;;;3.63;;
11685;SDS011;5899;51.282;6.094;2023-01-13T15:33:33;10.20;;;3.70;;
11685;SDS011;5899;51.282;6.094;2023-01-13T15:35:59;12.27;;;4.15;;
11685;SDS011;5899;51.282;6.094;2023-01-13T15:38:26;13.38;;;4.22;;
11685;SDS011;5899;51.282;6.094;2023-01-13T15:40:53;10.43;;;3.45;;
11685;SDS011;5899;51.282;6.094;2023-01-13T15:43:21;12.87;;;3.80;;
11685;SDS011;5899;51.282;6.094;2023-01-13T15:46:09;10.95;;;3.67;;
11685;SDS011;5899;51.282;6.094;2023-01-13T15:48:54;12.10;;;3.88;;
11685;SDS011;5899;51.282;6.094;2023-01-13T15:51:22;11.93;;;4.07;;
11685;SDS011;5899;51.282;6.094;2023-01-13T15:53:48;11.32;;;4.10;;
11685;SDS011;5899;51.282;6.094;2023-01-13T15:56:17;10.13;;;3.67;;